sensor_id;sensor_type;location;lat;lon;timestamp;P1;durP1;ratioP1;P2;durP2;ratioP2
56427;SDS011;42331;53.578;9.760;2024-01-11T00:01:28;31.80;;;14.97;;
56427;SDS011;42331;53.578;9.760;2024-01-11T00:03:59;31.90;;;14.47;;
56427;SDS011;42331;53.578;9.760;2024-01-11T00:06:29;28.33;;;13.83;;
56427;SDS011;42331;53.578;9.760;2024-01-11T00:09:00;30.17;;;14.00;;
56427;SDS011;42331;53.578;9.760;2024-01-11T00:11:31;19.73;;;9.83;;
56427;SDS011;42331;53.578;9.760;2024-01-11T00:14:02;31.77;;;13.43;;
56427;SDS011;42331;53.578;9.760;2024-01-11T00:16:33;31.25;;;14.27;;
56427;SDS011;42331;53.578;9.760;2024-01-11T00:19:03;28.57;;;13.60;;
56427;SDS011;42331;53.578;9.760;2024-01-11T00:21:34;29.40;;;12.60;;
56427;SDS011;42331;53.578;9.760;2024-01-11T00:24:05;27.90;;;12.47;;
56427;SDS011;42331;53.578;9.760;2024-01-11T00:26:36;25.37;;;11.93;;
56427;SDS011;42331;53.578;9.760;2024-01-11T00:29:07;30.97;;;13.43;;
56427;SDS011;42331;53.578;9.760;2024-01-11T00:31:38;27.25;;;12.57;;
56427;SDS011;42331;53.578;9.760;2024-01-11T00:34:08;28.00;;;12.17;;
56427;SDS011;42331;53.578;9.760;2024-01-11T00:36:39;25.80;;;11.67;;
56427;SDS011;42331;53.578;9.760;2024-01-11T00:39:10;25.70;;;11.77;;
56427;SDS011;42331;53.578;9.760;2024-01-11T00:41:41;24.63;;;11.07;;
56427;SDS011;42331;53.578;9.760;2024-01-11T00:44:12;22.57;;;11.17;;
56427;SDS011;42331;53.578;9.760;2024-01-11T00:46:43;26.10;;;11.50;;
56427;SDS011;42331;53.578;9.760;2024-01-11T00:49:13;29.63;;;12.50;;
56427;SDS011;42331;53.578;9.760;2024-01-11T00:51:44;28.03;;;12.57;;
56427;SDS011;42331;53.578;9.760;2024-01-11T00:54:15;28.40;;;11.90;;
56427;SDS011;42331;53.578;9.760;2024-01-11T00:56:46;28.80;;;12.87;;
56427;SDS011;42331;53.578;9.760;2024-01-11T00:59:17;28.65;;;11.93;;
56427;SDS011;42331;53.578;9.760;2024-01-11T01:01:48;26.10;;;11.50;;
56427;SDS011;42331;53.578;9.760;2024-01-11T01:04:20;26.80;;;11.45;;
56427;SDS011;42331;53.578;9.760;2024-01-11T01:06:50;21.20;;;9.60;;
56427;SDS011;42331;53.578;9.760;2024-01-11T01:09:21;25.60;;;11.67;;
56427;SDS011;42331;53.578;9.760;2024-01-11T01:11:52;30.07;;;12.47;;
56427;SDS011;42331;53.578;9.760;2024-01-11T01:14:22;32.07;;;13.43;;
56427;SDS011;42331;53.578;9.760;2024-01-11T01:16:53;32.30;;;12.93;;
56427;SDS011;42331;53.578;9.760;2024-01-11T01:19:24;32.07;;;13.07;;
56427;SDS011;42331;53.578;9.760;2024-01-11T01:21:54;36.90;;;13.70;;
56427;SDS011;42331;53.578;9.760;2024-01-11T01:24:25;31.00;;;12.87;;
56427;SDS011;42331;53.578;9.760;2024-01-11T01:26:56;26.97;;;12.60;;
56427;SDS011;42331;53.578;9.760;2024-01-11T01:29:27;30.87;;;13.23;;
56427;SDS011;42331;53.578;9.760;2024-01-11T01:31:57;30.67;;;12.70;;
56427;SDS011;42331;53.578;9.760;2024-01-11T01:34:28;31.57;;;12.90;;
56427;SDS011;42331;53.578;9.760;2024-01-11T01:36:59;31.97;;;13.03;;
56427;SDS011;42331;53.578;9.760;2024-01-11T01:39:29;33.87;;;14.47;;
56427;SDS011;42331;53.578;9.760;2024-01-11T01:42:00;33.77;;;13.17;;
56427;SDS011;42331;53.578;9.760;2024-01-11T01:44:31;32.07;;;13.17;;
56427;SDS011;42331;53.578;9.760;2024-01-11T01:47:02;31.93;;;12.77;;
56427;SDS011;42331;53.578;9.760;2024-01-11T01:49:34;33.53;;;14.48;;
56427;SDS011;42331;53.578;9.760;2024-01-11T01:52:07;35.55;;;14.02;;
56427;SDS011;42331;53.578;9.760;2024-01-11T01:54:38;31.80;;;13.50;;
56427;SDS011;42331;53.578;9.760;2024-01-11T01:57:08;32.67;;;14.20;;
56427;SDS011;42331;53.578;9.760;2024-01-11T01:59:42;37.67;;;15.00;;
56427;SDS011;42331;53.578;9.760;2024-01-11T02:02:13;32.70;;;14.10;;
56427;SDS011;42331;53.578;9.760;2024-01-11T02:04:44;32.73;;;14.53;;
56427;SDS011;42331;53.578;9.760;2024-01-11T02:07:15;32.63;;;13.37;;
56427;SDS011;42331;53.578;9.760;2024-01-11T02:09:46;37.80;;;15.05;;
56427;SDS011;42331;53.578;9.760;2024-01-11T02:12:18;33.30;;;15.25;;
56427;SDS011;42331;53.578;9.760;2024-01-11T02:14:48;44.03;;;17.57;;
56427;SDS011;42331;53.578;9.760;2024-01-11T02:17:20;41.05;;;16.45;;
56427;SDS011;42331;53.578;9.760;2024-01-11T02:19:51;42.22;;;17.38;;
56427;SDS011;42331;53.578;9.760;2024-01-11T02:22:24;38.00;;;16.40;;
56427;SDS011;42331;53.578;9.760;2024-01-11T02:24:59;40.10;;;16.73;;
56427;SDS011;42331;53.578;9.760;2024-01-11T02:27:30;40.80;;;16.97;;
56427;SDS011;42331;53.578;9.760;2024-01-11T02:30:00;43.53;;;17.40;;
56427;SDS011;42331;53.578;9.760;2024-01-11T02:32:31;42.53;;;17.23;;
56427;SDS011;42331;53.578;9.760;2024-01-11T02:35:02;43.27;;;16.67;;
56427;SDS011;42331;53.578;9.760;2024-01-11T02:37:33;47.33;;;17.40;;
56427;SDS011;42331;53.578;9.760;2024-01-11T02:40:07;45.25;;;17.95;;
56427;SDS011;42331;53.578;9.760;2024-01-11T02:42:38;43.00;;;16.75;;
56427;SDS011;42331;53.578;9.760;2024-01-11T02:45:10;49.27;;;18.37;;
56427;SDS011;42331;53.578;9.760;2024-01-11T02:47:42;45.47;;;17.75;;
56427;SDS011;42331;53.578;9.760;2024-01-11T02:50:13;45.00;;;17.33;;
56427;SDS011;42331;53.578;9.760;2024-01-11T02:52:43;41.23;;;16.10;;
56427;SDS011;42331;53.578;9.760;2024-01-11T02:55:14;50.00;;;19.83;;
56427;SDS011;42331;53.578;9.760;2024-01-11T02:57:45;45.23;;;17.37;;
56427;SDS011;42331;53.578;9.760;2024-01-11T03:00:15;42.63;;;16.10;;
56427;SDS011;42331;53.578;9.760;2024-01-11T03:02:46;41.57;;;15.50;;
56427;SDS011;42331;53.578;9.760;2024-01-11T03:05:17;45.27;;;17.93;;
56427;SDS011;42331;53.578;9.760;2024-01-11T03:07:48;45.53;;;16.63;;
56427;SDS011;42331;53.578;9.760;2024-01-11T03:10:18;41.40;;;16.57;;
56427;SDS011;42331;53.578;9.760;2024-01-11T03:12:49;40.97;;;14.83;;
56427;SDS011;42331;53.578;9.760;2024-01-11T03:15:20;40.10;;;16.53;;
56427;SDS011;42331;53.578;9.760;2024-01-11T03:17:51;41.97;;;16.60;;
56427;SDS011;42331;53.578;9.760;2024-01-11T03:20:21;43.17;;;16.23;;
56427;SDS011;42331;53.578;9.760;2024-01-11T03:22:54;40.65;;;15.98;;
56427;SDS011;42331;53.578;9.760;2024-01-11T03:25:25;47.77;;;17.90;;
56427;SDS011;42331;53.578;9.760;2024-01-11T03:27:57;42.07;;;16.73;;
56427;SDS011;42331;53.578;9.760;2024-01-11T03:30:28;42.38;;;17.33;;
56427;SDS011;42331;53.578;9.760;2024-01-11T03:33:00;43.20;;;16.80;;
56427;SDS011;42331;53.578;9.760;2024-01-11T03:35:30;39.10;;;16.53;;
56427;SDS011;42331;53.578;9.760;2024-01-11T03:38:01;45.50;;;16.83;;
56427;SDS011;42331;53.578;9.760;2024-01-11T03:40:32;33.13;;;12.20;;
56427;SDS011;42331;53.578;9.760;2024-01-11T03:43:03;34.53;;;13.47;;
56427;SDS011;42331;53.578;9.760;2024-01-11T03:45:33;35.43;;;13.23;;
56427;SDS011;42331;53.578;9.760;2024-01-11T03:48:04;49.47;;;17.27;;
56427;SDS011;42331;53.578;9.760;2024-01-11T03:50:35;51.30;;;18.93;;
56427;SDS011;42331;53.578;9.760;2024-01-11T03:53:06;37.73;;;14.60;;
56427;SDS011;42331;53.578;9.760;2024-01-11T03:58:08;48.53;;;18.13;;
56427;SDS011;42331;53.578;9.760;2024-01-11T04:00:39;47.23;;;18.37;;
56427;SDS011;42331;53.578;9.760;2024-01-11T04:03:10;49.40;;;18.30;;
56427;SDS011;42331;53.578;9.760;2024-01-11T04:05:40;44.13;;;17.13;;
56427;SDS011;42331;53.578;9.760;2024-01-11T04:08:11;47.40;;;18.93;;
56427;SDS011;42331;53.578;9.760;2024-01-11T04:10:42;46.23;;;18.80;;
56427;SDS011;42331;53.578;9.760;2024-01-11T04:13:19;46.47;;;18.15;;
56427;SDS011;42331;53.578;9.760;2024-01-11T04:15:50;44.13;;;17.93;;
56427;SDS011;42331;53.578;9.760;2024-01-11T04:18:20;50.13;;;20.03;;
56427;SDS011;42331;53.578;9.760;2024-01-11T04:20:51;51.03;;;20.53;;
56427;SDS011;42331;53.578;9.760;2024-01-11T04:23:22;51.30;;;19.93;;
56427;SDS011;42331;53.578;9.760;2024-01-11T04:25:53;50.17;;;18.70;;
56427;SDS011;42331;53.578;9.760;2024-01-11T04:28:23;44.63;;;17.33;;
56427;SDS011;42331;53.578;9.760;2024-01-11T04:30:54;38.80;;;16.23;;
56427;SDS011;42331;53.578;9.760;2024-01-11T04:33:25;40.97;;;15.27;;
56427;SDS011;42331;53.578;9.760;2024-01-11T04:35:55;43.07;;;15.53;;
56427;SDS011;42331;53.578;9.760;2024-01-11T04:38:26;39.53;;;16.20;;
56427;SDS011;42331;53.578;9.760;2024-01-11T04:40:57;38.03;;;14.43;;
56427;SDS011;42331;53.578;9.760;2024-01-11T04:43:28;34.60;;;14.47;;
56427;SDS011;42331;53.578;9.760;2024-01-11T04:45:58;32.17;;;13.27;;
56427;SDS011;42331;53.578;9.760;2024-01-11T04:48:29;32.47;;;12.60;;
56427;SDS011;42331;53.578;9.760;2024-01-11T04:51:00;27.73;;;12.00;;
56427;SDS011;42331;53.578;9.760;2024-01-11T04:53:30;23.30;;;10.50;;
56427;SDS011;42331;53.578;9.760;2024-01-11T04:56:01;26.20;;;10.97;;
56427;SDS011;42331;53.578;9.760;2024-01-11T04:58:32;28.47;;;11.33;;
56427;SDS011;42331;53.578;9.760;2024-01-11T05:01:02;20.03;;;8.57;;
56427;SDS011;42331;53.578;9.760;2024-01-11T05:03:33;23.52;;;9.98;;
56427;SDS011;42331;53.578;9.760;2024-01-11T05:06:04;18.47;;;7.60;;
56427;SDS011;42331;53.578;9.760;2024-01-11T05:08:35;23.30;;;9.33;;
56427;SDS011;42331;53.578;9.760;2024-01-11T05:11:06;17.40;;;7.37;;
56427;SDS011;42331;53.578;9.760;2024-01-11T05:13:36;20.67;;;8.33;;
56427;SDS011;42331;53.578;9.760;2024-01-11T05:16:07;17.13;;;7.93;;
56427;SDS011;42331;53.578;9.760;2024-01-11T05:18:45;19.80;;;8.60;;
56427;SDS011;42331;53.578;9.760;2024-01-11T05:21:16;18.50;;;8.53;;
56427;SDS011;42331;53.578;9.760;2024-01-11T05:23:47;17.20;;;7.72;;
56427;SDS011;42331;53.578;9.760;2024-01-11T05:26:19;22.10;;;7.85;;
56427;SDS011;42331;53.578;9.760;2024-01-11T05:28:50;17.90;;;7.60;;
56427;SDS011;42331;53.578;9.760;2024-01-11T05:31:20;17.93;;;7.03;;
56427;SDS011;42331;53.578;9.760;2024-01-11T05:33:52;15.63;;;6.50;;
56427;SDS011;42331;53.578;9.760;2024-01-11T05:36:22;16.53;;;6.53;;
56427;SDS011;42331;53.578;9.760;2024-01-11T05:38:53;14.40;;;6.03;;
56427;SDS011;42331;53.578;9.760;2024-01-11T05:41:24;15.13;;;6.00;;
56427;SDS011;42331;53.578;9.760;2024-01-11T05:43:55;11.80;;;5.30;;
56427;SDS011;42331;53.578;9.760;2024-01-11T05:46:25;13.00;;;5.83;;
56427;SDS011;42331;53.578;9.760;2024-01-11T05:48:56;9.83;;;4.03;;
56427;SDS011;42331;53.578;9.760;2024-01-11T05:51:27;11.93;;;4.60;;
56427;SDS011;42331;53.578;9.760;2024-01-11T05:53:57;12.60;;;4.30;;
56427;SDS011;42331;53.578;9.760;2024-01-11T05:56:28;13.47;;;4.60;;
56427;SDS011;42331;53.578;9.760;2024-01-11T05:58:59;15.70;;;5.23;;
56427;SDS011;42331;53.578;9.760;2024-01-11T06:01:29;16.67;;;5.43;;
56427;SDS011;42331;53.578;9.760;2024-01-11T06:04:00;14.93;;;5.23;;
56427;SDS011;42331;53.578;9.760;2024-01-11T06:06:31;21.00;;;6.00;;
56427;SDS011;42331;53.578;9.760;2024-01-11T06:09:01;25.30;;;6.10;;
56427;SDS011;42331;53.578;9.760;2024-01-11T06:11:34;14.35;;;5.57;;
56427;SDS011;42331;53.578;9.760;2024-01-11T06:14:05;18.07;;;6.07;;
56427;SDS011;42331;53.578;9.760;2024-01-11T06:16:37;16.60;;;5.97;;
56427;SDS011;42331;53.578;9.760;2024-01-11T06:19:07;22.70;;;6.70;;
56427;SDS011;42331;53.578;9.760;2024-01-11T06:21:39;18.52;;;6.40;;
56427;SDS011;42331;53.578;9.760;2024-01-11T06:24:10;18.57;;;5.37;;
56427;SDS011;42331;53.578;9.760;2024-01-11T06:26:40;24.77;;;6.60;;
56427;SDS011;42331;53.578;9.760;2024-01-11T06:29:11;16.17;;;5.40;;
56427;SDS011;42331;53.578;9.760;2024-01-11T06:31:42;21.13;;;6.70;;
56427;SDS011;42331;53.578;9.760;2024-01-11T06:34:12;16.27;;;5.93;;
56427;SDS011;42331;53.578;9.760;2024-01-11T06:36:43;23.07;;;6.70;;
56427;SDS011;42331;53.578;9.760;2024-01-11T06:39:14;14.90;;;4.30;;
56427;SDS011;42331;53.578;9.760;2024-01-11T06:41:45;25.67;;;6.97;;
56427;SDS011;42331;53.578;9.760;2024-01-11T06:44:15;21.23;;;6.40;;
56427;SDS011;42331;53.578;9.760;2024-01-11T06:46:46;19.80;;;5.37;;
56427;SDS011;42331;53.578;9.760;2024-01-11T06:49:17;23.43;;;6.93;;
56427;SDS011;42331;53.578;9.760;2024-01-11T06:51:47;27.00;;;7.63;;
56427;SDS011;42331;53.578;9.760;2024-01-11T06:54:18;30.83;;;8.87;;
56427;SDS011;42331;53.578;9.760;2024-01-11T06:56:49;25.40;;;7.53;;
56427;SDS011;42331;53.578;9.760;2024-01-11T06:59:20;23.53;;;7.87;;
56427;SDS011;42331;53.578;9.760;2024-01-11T07:01:50;29.40;;;7.70;;
56427;SDS011;42331;53.578;9.760;2024-01-11T07:04:21;24.17;;;7.80;;
56427;SDS011;42331;53.578;9.760;2024-01-11T07:06:52;22.93;;;7.00;;
56427;SDS011;42331;53.578;9.760;2024-01-11T07:09:22;22.73;;;8.13;;
56427;SDS011;42331;53.578;9.760;2024-01-11T07:11:53;26.07;;;8.47;;
56427;SDS011;42331;53.578;9.760;2024-01-11T07:14:24;25.38;;;7.32;;
56427;SDS011;42331;53.578;9.760;2024-01-11T07:16:55;32.00;;;8.33;;
56427;SDS011;42331;53.578;9.760;2024-01-11T07:19:26;31.73;;;8.83;;
56427;SDS011;42331;53.578;9.760;2024-01-11T07:21:56;30.73;;;8.37;;
56427;SDS011;42331;53.578;9.760;2024-01-11T07:24:27;36.20;;;9.60;;
56427;SDS011;42331;53.578;9.760;2024-01-11T07:27:06;38.53;;;8.68;;
56427;SDS011;42331;53.578;9.760;2024-01-11T07:29:37;29.13;;;9.27;;
56427;SDS011;42331;53.578;9.760;2024-01-11T07:32:08;34.35;;;9.65;;
56427;SDS011;42331;53.578;9.760;2024-01-11T07:34:38;25.17;;;6.80;;
56427;SDS011;42331;53.578;9.760;2024-01-11T07:37:09;31.70;;;8.73;;
56427;SDS011;42331;53.578;9.760;2024-01-11T07:39:40;29.47;;;8.97;;
56427;SDS011;42331;53.578;9.760;2024-01-11T07:42:10;21.77;;;6.53;;
56427;SDS011;42331;53.578;9.760;2024-01-11T07:44:41;32.43;;;9.00;;
56427;SDS011;42331;53.578;9.760;2024-01-11T07:47:12;26.33;;;7.27;;
56427;SDS011;42331;53.578;9.760;2024-01-11T07:49:43;31.97;;;8.90;;
56427;SDS011;42331;53.578;9.760;2024-01-11T07:52:13;24.10;;;8.33;;
56427;SDS011;42331;53.578;9.760;2024-01-11T07:54:44;35.80;;;9.57;;
56427;SDS011;42331;53.578;9.760;2024-01-11T07:57:16;27.10;;;8.40;;
56427;SDS011;42331;53.578;9.760;2024-01-11T07:59:46;35.37;;;8.77;;
56427;SDS011;42331;53.578;9.760;2024-01-11T08:02:18;27.50;;;7.78;;
56427;SDS011;42331;53.578;9.760;2024-01-11T08:04:49;26.63;;;8.53;;
56427;SDS011;42331;53.578;9.760;2024-01-11T08:07:19;30.67;;;8.03;;
56427;SDS011;42331;53.578;9.760;2024-01-11T08:09:50;26.57;;;7.63;;
56427;SDS011;42331;53.578;9.760;2024-01-11T08:12:21;23.60;;;7.23;;
56427;SDS011;42331;53.578;9.760;2024-01-11T08:14:52;23.60;;;6.20;;
56427;SDS011;42331;53.578;9.760;2024-01-11T08:17:23;22.97;;;6.70;;
56427;SDS011;42331;53.578;9.760;2024-01-11T08:19:53;19.53;;;5.17;;
56427;SDS011;42331;53.578;9.760;2024-01-11T08:22:25;31.90;;;7.28;;
56427;SDS011;42331;53.578;9.760;2024-01-11T08:24:57;23.92;;;6.10;;
56427;SDS011;42331;53.578;9.760;2024-01-11T08:27:28;16.30;;;4.23;;
56427;SDS011;42331;53.578;9.760;2024-01-11T08:29:59;20.75;;;6.38;;
56427;SDS011;42331;53.578;9.760;2024-01-11T08:32:34;29.38;;;7.45;;
56427;SDS011;42331;53.578;9.760;2024-01-11T08:35:09;26.70;;;7.80;;
56427;SDS011;42331;53.578;9.760;2024-01-11T08:37:40;29.20;;;7.30;;
56427;SDS011;42331;53.578;9.760;2024-01-11T08:40:11;23.10;;;6.93;;
56427;SDS011;42331;53.578;9.760;2024-01-11T08:42:41;28.07;;;7.20;;
56427;SDS011;42331;53.578;9.760;2024-01-11T08:45:12;16.63;;;5.70;;
56427;SDS011;42331;53.578;9.760;2024-01-11T08:47:47;20.75;;;6.05;;
56427;SDS011;42331;53.578;9.760;2024-01-11T08:50:18;18.83;;;6.17;;
56427;SDS011;42331;53.578;9.760;2024-01-11T08:52:50;23.25;;;6.72;;
56427;SDS011;42331;53.578;9.760;2024-01-11T08:55:21;24.90;;;6.70;;
56427;SDS011;42331;53.578;9.760;2024-01-11T08:57:51;27.23;;;6.27;;
56427;SDS011;42331;53.578;9.760;2024-01-11T09:00:22;17.47;;;6.83;;
56427;SDS011;42331;53.578;9.760;2024-01-11T09:02:53;18.90;;;5.80;;
56427;SDS011;42331;53.578;9.760;2024-01-11T09:05:24;20.03;;;6.03;;
56427;SDS011;42331;53.578;9.760;2024-01-11T09:07:54;23.10;;;5.73;;
56427;SDS011;42331;53.578;9.760;2024-01-11T09:10:25;16.20;;;5.47;;
56427;SDS011;42331;53.578;9.760;2024-01-11T09:15:28;20.10;;;6.25;;
56427;SDS011;42331;53.578;9.760;2024-01-11T09:17:59;16.33;;;5.57;;
56427;SDS011;42331;53.578;9.760;2024-01-11T09:20:33;19.42;;;6.55;;
56427;SDS011;42331;53.578;9.760;2024-01-11T09:23:05;22.50;;;7.20;;
56427;SDS011;42331;53.578;9.760;2024-01-11T09:25:36;27.53;;;8.57;;
56427;SDS011;42331;53.578;9.760;2024-01-11T09:28:06;24.73;;;7.83;;
56427;SDS011;42331;53.578;9.760;2024-01-11T09:30:37;29.80;;;9.57;;
56427;SDS011;42331;53.578;9.760;2024-01-11T09:33:08;27.77;;;9.47;;
56427;SDS011;42331;53.578;9.760;2024-01-11T09:35:39;32.40;;;11.33;;
56427;SDS011;42331;53.578;9.760;2024-01-11T09:38:09;30.53;;;10.90;;
56427;SDS011;42331;53.578;9.760;2024-01-11T09:40:41;22.65;;;8.05;;
56427;SDS011;42331;53.578;9.760;2024-01-11T09:43:11;35.03;;;12.17;;
56427;SDS011;42331;53.578;9.760;2024-01-11T09:45:42;35.95;;;12.27;;
56427;SDS011;42331;53.578;9.760;2024-01-11T09:48:13;39.97;;;13.03;;
56427;SDS011;42331;53.578;9.760;2024-01-11T09:50:45;42.15;;;13.48;;
56427;SDS011;42331;53.578;9.760;2024-01-11T09:53:17;42.58;;;13.40;;
56427;SDS011;42331;53.578;9.760;2024-01-11T09:55:51;41.00;;;14.15;;
56427;SDS011;42331;53.578;9.760;2024-01-11T09:58:22;38.75;;;14.45;;
56427;SDS011;42331;53.578;9.760;2024-01-11T10:00:54;41.15;;;14.82;;
56427;SDS011;42331;53.578;9.760;2024-01-11T10:05:57;45.22;;;14.32;;
56427;SDS011;42331;53.578;9.760;2024-01-11T10:08:28;44.60;;;15.18;;
56427;SDS011;42331;53.578;9.760;2024-01-11T10:11:00;40.00;;;14.35;;
56427;SDS011;42331;53.578;9.760;2024-01-11T10:13:31;48.70;;;16.30;;
56427;SDS011;42331;53.578;9.760;2024-01-11T10:16:06;42.70;;;14.93;;
56427;SDS011;42331;53.578;9.760;2024-01-11T10:18:43;44.28;;;15.77;;
56427;SDS011;42331;53.578;9.760;2024-01-11T10:21:14;42.60;;;15.93;;
56427;SDS011;42331;53.578;9.760;2024-01-11T10:23:45;45.00;;;16.20;;
56427;SDS011;42331;53.578;9.760;2024-01-11T10:26:16;41.43;;;13.73;;
56427;SDS011;42331;53.578;9.760;2024-01-11T10:28:47;49.55;;;16.58;;
56427;SDS011;42331;53.578;9.760;2024-01-11T10:31:18;41.03;;;15.97;;
56427;SDS011;42331;53.578;9.760;2024-01-11T10:33:51;47.28;;;16.92;;
56427;SDS011;42331;53.578;9.760;2024-01-11T10:36:21;51.23;;;16.80;;
56427;SDS011;42331;53.578;9.760;2024-01-11T10:38:53;51.83;;;15.88;;
56427;SDS011;42331;53.578;9.760;2024-01-11T10:41:26;41.78;;;16.23;;
56427;SDS011;42331;53.578;9.760;2024-01-11T10:43:59;46.28;;;15.98;;
56427;SDS011;42331;53.578;9.760;2024-01-11T10:46:31;45.25;;;16.35;;
56427;SDS011;42331;53.578;9.760;2024-01-11T10:49:04;42.90;;;15.77;;
56427;SDS011;42331;53.578;9.760;2024-01-11T10:54:08;48.60;;;15.70;;
56427;SDS011;42331;53.578;9.760;2024-01-11T10:56:39;42.63;;;16.47;;
56427;SDS011;42331;53.578;9.760;2024-01-11T10:59:12;46.60;;;15.18;;
56427;SDS011;42331;53.578;9.760;2024-01-11T11:01:43;48.10;;;16.05;;
56427;SDS011;42331;53.578;9.760;2024-01-11T11:04:15;40.92;;;15.55;;
56427;SDS011;42331;53.578;9.760;2024-01-11T11:06:50;48.63;;;15.00;;
56427;SDS011;42331;53.578;9.760;2024-01-11T11:09:25;40.45;;;14.68;;
56427;SDS011;42331;53.578;9.760;2024-01-11T11:11:58;41.05;;;15.63;;
56427;SDS011;42331;53.578;9.760;2024-01-11T11:14:29;39.03;;;15.43;;
56427;SDS011;42331;53.578;9.760;2024-01-11T11:17:02;45.78;;;15.25;;
56427;SDS011;42331;53.578;9.760;2024-01-11T11:19:34;39.33;;;15.05;;
56427;SDS011;42331;53.578;9.760;2024-01-11T11:22:05;41.13;;;14.50;;
56427;SDS011;42331;53.578;9.760;2024-01-11T11:24:36;40.80;;;14.70;;
56427;SDS011;42331;53.578;9.760;2024-01-11T11:27:06;38.30;;;14.67;;
56427;SDS011;42331;53.578;9.760;2024-01-11T11:29:37;41.43;;;15.17;;
56427;SDS011;42331;53.578;9.760;2024-01-11T11:32:08;37.50;;;14.83;;
56427;SDS011;42331;53.578;9.760;2024-01-11T11:34:41;35.67;;;13.35;;
56427;SDS011;42331;53.578;9.760;2024-01-11T11:37:22;42.42;;;13.95;;
56427;SDS011;42331;53.578;9.760;2024-01-11T11:39:53;43.45;;;15.20;;
56427;SDS011;42331;53.578;9.760;2024-01-11T11:42:24;39.07;;;14.37;;
56427;SDS011;42331;53.578;9.760;2024-01-11T11:44:56;39.03;;;15.10;;
56427;SDS011;42331;53.578;9.760;2024-01-11T11:47:34;41.97;;;15.57;;
56427;SDS011;42331;53.578;9.760;2024-01-11T11:50:09;30.17;;;11.68;;
56427;SDS011;42331;53.578;9.760;2024-01-11T11:52:41;40.00;;;15.10;;
56427;SDS011;42331;53.578;9.760;2024-01-11T11:55:12;37.47;;;14.53;;
56427;SDS011;42331;53.578;9.760;2024-01-11T11:57:44;45.92;;;14.85;;
56427;SDS011;42331;53.578;9.760;2024-01-11T12:00:15;38.65;;;15.10;;
56427;SDS011;42331;53.578;9.760;2024-01-11T12:02:47;38.97;;;13.53;;
56427;SDS011;42331;53.578;9.760;2024-01-11T12:05:18;40.22;;;14.40;;
56427;SDS011;42331;53.578;9.760;2024-01-11T12:07:49;35.67;;;13.83;;
56427;SDS011;42331;53.578;9.760;2024-01-11T12:12:51;41.75;;;14.30;;
56427;SDS011;42331;53.578;9.760;2024-01-11T12:15:22;42.33;;;13.83;;
56427;SDS011;42331;53.578;9.760;2024-01-11T12:17:59;38.75;;;14.07;;
56427;SDS011;42331;53.578;9.760;2024-01-11T12:20:30;32.65;;;12.77;;
56427;SDS011;42331;53.578;9.760;2024-01-11T12:23:01;42.60;;;15.83;;
56427;SDS011;42331;53.578;9.760;2024-01-11T12:25:32;35.75;;;13.90;;
56427;SDS011;42331;53.578;9.760;2024-01-11T12:28:03;42.70;;;14.33;;
56427;SDS011;42331;53.578;9.760;2024-01-11T12:30:36;47.67;;;14.95;;
56427;SDS011;42331;53.578;9.760;2024-01-11T12:33:08;39.38;;;14.35;;
56427;SDS011;42331;53.578;9.760;2024-01-11T12:35:39;37.63;;;13.48;;
56427;SDS011;42331;53.578;9.760;2024-01-11T12:38:10;32.93;;;13.17;;
56427;SDS011;42331;53.578;9.760;2024-01-11T12:43:13;42.13;;;13.65;;
56427;SDS011;42331;53.578;9.760;2024-01-11T12:45:45;39.45;;;14.73;;
56427;SDS011;42331;53.578;9.760;2024-01-11T12:48:16;40.63;;;15.30;;
56427;SDS011;42331;53.578;9.760;2024-01-11T12:50:48;41.65;;;14.23;;
56427;SDS011;42331;53.578;9.760;2024-01-11T12:53:19;40.90;;;13.87;;
56427;SDS011;42331;53.578;9.760;2024-01-11T12:56:05;41.70;;;14.23;;
56427;SDS011;42331;53.578;9.760;2024-01-11T12:58:43;38.65;;;13.18;;
56427;SDS011;42331;53.578;9.760;2024-01-11T13:01:16;44.35;;;15.65;;
56427;SDS011;42331;53.578;9.760;2024-01-11T13:03:48;40.25;;;13.98;;
56427;SDS011;42331;53.578;9.760;2024-01-11T13:06:19;40.40;;;15.20;;
56427;SDS011;42331;53.578;9.760;2024-01-11T13:08:50;43.77;;;14.83;;
56427;SDS011;42331;53.578;9.760;2024-01-11T13:11:20;38.73;;;13.27;;
56427;SDS011;42331;53.578;9.760;2024-01-11T13:13:53;39.95;;;13.18;;
56427;SDS011;42331;53.578;9.760;2024-01-11T13:16:24;37.70;;;14.27;;
56427;SDS011;42331;53.578;9.760;2024-01-11T13:18:55;39.70;;;14.10;;
56427;SDS011;42331;53.578;9.760;2024-01-11T13:21:26;41.80;;;14.37;;
56427;SDS011;42331;53.578;9.760;2024-01-11T13:23:56;40.63;;;13.47;;
56427;SDS011;42331;53.578;9.760;2024-01-11T13:26:27;41.10;;;14.50;;
56427;SDS011;42331;53.578;9.760;2024-01-11T13:28:58;38.63;;;13.52;;
56427;SDS011;42331;53.578;9.760;2024-01-11T13:31:29;37.97;;;13.93;;
56427;SDS011;42331;53.578;9.760;2024-01-11T13:33:59;27.88;;;9.60;;
56427;SDS011;42331;53.578;9.760;2024-01-11T13:36:30;43.73;;;14.43;;
56427;SDS011;42331;53.578;9.760;2024-01-11T13:39:01;41.77;;;14.10;;
56427;SDS011;42331;53.578;9.760;2024-01-11T13:41:32;41.90;;;15.33;;
56427;SDS011;42331;53.578;9.760;2024-01-11T13:44:02;37.67;;;13.38;;
56427;SDS011;42331;53.578;9.760;2024-01-11T13:46:36;46.05;;;14.88;;
56427;SDS011;42331;53.578;9.760;2024-01-11T13:49:06;33.60;;;12.93;;
56427;SDS011;42331;53.578;9.760;2024-01-11T13:51:37;38.07;;;14.30;;
56427;SDS011;42331;53.578;9.760;2024-01-11T13:54:08;41.10;;;14.73;;
56427;SDS011;42331;53.578;9.760;2024-01-11T13:56:39;43.57;;;13.93;;
56427;SDS011;42331;53.578;9.760;2024-01-11T13:59:10;35.83;;;13.20;;
56427;SDS011;42331;53.578;9.760;2024-01-11T14:01:41;39.28;;;14.85;;
56427;SDS011;42331;53.578;9.760;2024-01-11T14:04:11;37.87;;;13.80;;
56427;SDS011;42331;53.578;9.760;2024-01-11T14:06:42;36.33;;;12.60;;
56427;SDS011;42331;53.578;9.760;2024-01-11T14:09:13;39.87;;;14.93;;
56427;SDS011;42331;53.578;9.760;2024-01-11T14:11:43;37.40;;;13.50;;
56427;SDS011;42331;53.578;9.760;2024-01-11T14:14:14;40.42;;;13.55;;
56427;SDS011;42331;53.578;9.760;2024-01-11T14:16:46;30.27;;;10.43;;
56427;SDS011;42331;53.578;9.760;2024-01-11T14:19:17;40.97;;;14.70;;
56427;SDS011;42331;53.578;9.760;2024-01-11T14:21:48;45.00;;;14.27;;
56427;SDS011;42331;53.578;9.760;2024-01-11T14:24:19;38.57;;;13.43;;
56427;SDS011;42331;53.578;9.760;2024-01-11T14:26:49;42.10;;;13.27;;
56427;SDS011;42331;53.578;9.760;2024-01-11T14:29:20;38.60;;;13.50;;
56427;SDS011;42331;53.578;9.760;2024-01-11T14:31:51;31.65;;;11.63;;
56427;SDS011;42331;53.578;9.760;2024-01-11T14:34:22;42.33;;;13.70;;
56427;SDS011;42331;53.578;9.760;2024-01-11T14:36:52;41.28;;;13.43;;
56427;SDS011;42331;53.578;9.760;2024-01-11T14:39:23;39.47;;;12.70;;
56427;SDS011;42331;53.578;9.760;2024-01-11T14:41:55;41.63;;;12.32;;
56427;SDS011;42331;53.578;9.760;2024-01-11T14:44:26;40.70;;;12.50;;
56427;SDS011;42331;53.578;9.760;2024-01-11T14:46:57;37.97;;;13.50;;
56427;SDS011;42331;53.578;9.760;2024-01-11T14:49:27;43.63;;;14.30;;
56427;SDS011;42331;53.578;9.760;2024-01-11T14:51:59;40.42;;;12.98;;
56427;SDS011;42331;53.578;9.760;2024-01-11T14:54:30;39.97;;;12.60;;
56427;SDS011;42331;53.578;9.760;2024-01-11T14:57:00;34.97;;;13.27;;
56427;SDS011;42331;53.578;9.760;2024-01-11T14:59:31;36.23;;;13.00;;
56427;SDS011;42331;53.578;9.760;2024-01-11T15:02:02;34.27;;;12.73;;
56427;SDS011;42331;53.578;9.760;2024-01-11T15:04:33;38.65;;;12.95;;